• Join FlightAware (Why Join?)
  • Login
  • US Flag 
02:44PM EDT


 

Airport Tracker/Info


-or-


 

Live Flight TrackerFlight Track Log ✈ FLG3432 ✈ 03-Aug-2013 ✈ KDTW - KIND

Flight Track Log - Related Links

Times and Time Zones

All times are in EDT time to prevent confusion due to time zone crossing. See the FLG3432 flight status page for this flight to view local times or setup timezone preferences in your user account.

Time Position Orientation Groundspeed Altitude Reporting Facility
EDT Latitude Longitude Course Direction KTS MPH feet Rate Location/Type
12:38PM 42.2033 -83.3722 208° Southwest 170 196 1,300  Level Cleveland Center
12:39PM 42.1694 -83.3961 208° Southwest 200 230 2,900 2,160 Climbing Cleveland Center
12:40PM 42.0908 -83.4542 209° Southwest 241 277 6,400 2,400 Climbing Cleveland Center
12:41PM 42.0311 -83.5017 211° Southwest 254 292 8,900 2,280 Climbing Cleveland Center
12:42PM 41.9483 -83.5650 210° Southwest 290 334 11,000 2,040 Climbing Cleveland Center
12:43PM 41.8672 -83.6308 211° Southwest 327 376 13,000 1,440 Climbing Cleveland Center
12:44PM 41.7797 -83.7047 212° Southwest 357 411 13,900 1,680 Climbing Cleveland Center
12:45PM 41.6922 -83.7811 213° Southwest 377 434 16,400 2,400 Climbing Cleveland Center
12:46PM 41.6047 -83.8519 211° Southwest 377 434 18,700 1,800 Climbing Cleveland Center
12:47PM 41.5128 -83.9275 212° Southwest 382 440 20,000 600 Climbing Cleveland Center
12:48PM 41.4169 -84.0003 210° Southwest 388 447 20,000  Level Cleveland Center
12:49PM 41.3272 -84.0728 211° Southwest 394 453 20,000  Level Cleveland Center
12:50PM 41.2411 -84.1594 217° Southwest 394 453 20,000  Level Cleveland Center
12:51PM 41.2075 -84.2928 252° West 368 423 20,000  Level Cleveland Center
12:52PM 41.1708 -84.4392 252° West 371 427 20,000  Level Chicago Center
12:53PM 41.1381 -84.5681 251° West 369 425 20,000  Level Chicago Center
12:54PM 41.1056 -84.6975 252° West 370 426 20,000  Level Chicago Center
12:56PM 41.0628 -84.8519 250° West 372 428 20,000  Level Chicago Center
12:57PM 40.9647 -84.9278 210° Southwest 402 463 20,000  Level Chicago Center
12:58PM 40.8625 -84.9931 206° Southwest 407 468 20,000  Level Chicago Center
12:59PM 40.7600 -85.0600 206° Southwest 409 471 20,000  Level Chicago Center
01:00PM 40.6564 -85.1250 205° Southwest 411 473 20,000  Level Chicago Center
01:01PM 40.5522 -85.1922 206° Southwest 412 474 20,000 -780 Level Chicago Center
01:02PM 40.4267 -85.2739 206° Southwest 416 479 18,500 -1,620 Descending Chicago Center
01:03PM 40.3222 -85.3400 206° Southwest 418 481 16,700 -1,800 Descending Chicago Center
01:04PM 40.2225 -85.4058 207° Southwest 412 474 14,800 -1,740 Descending Chicago Center
01:05PM 40.1500 -85.6000 244° Southwest 354 407 12,100 -1,500 Descending Indianapolis TRACON
01:06PM 40.1000 -85.7167 241° Southwest 341 392 11,000 -720 Descending Indianapolis TRACON
01:07PM 40.0767 -85.7661 238° Southwest 342 394 11,000  Level Indianapolis Center
01:08PM 40.0303 -85.8731 240° Southwest 339 390 11,000  Level Indianapolis Center
01:09PM 39.9833 -85.9819 241° Southwest 345 397 11,000 -420 Level Indianapolis Center
01:10PM 39.9364 -86.0892 240° Southwest 344 396 10,200 -840 Descending Indianapolis Center
01:11PM 39.8900 -86.1958 240° Southwest 285 328 9,300 -1,260 Descending Indianapolis Center
01:12PM 39.8536 -86.2772 240° Southwest 267 307 7,700 -1,140 Descending Indianapolis Center
01:13PM 39.8047 -86.3453 227° Southwest 268 308 7,000 -900 Descending Indianapolis Center
01:14PM 39.7553 -86.4050 223° Southwest 254 292 5,900 -1,440 Descending Indianapolis Center
01:15PM 39.6997 -86.4722 223° Southwest 236 272 4,100 -1,140 Descending Indianapolis Center
01:16PM 39.6567 -86.5256 224° Southwest 226 260 3,600 -540 Descending Indianapolis Center
01:17PM 39.6056 -86.5314 185° South 231 266 3,000 -300 Descending Indianapolis Center
01:18PM 39.5906 -86.4669 107° East 219 252 3,000 -60 Level Indianapolis Center
01:19PM 39.6300 -86.4181 44° Northeast 205 236 2,900 -540 Descending Indianapolis Center
01:20PM 39.6633 -86.3758 44° Northeast 187 215 2,000 -900 Descending Indianapolis Center
01:21PM 39.6975 -86.3322 44° Northeast 162 186 1,100 -600 Descending Indianapolis Center
01:22PM 39.7222 -86.3000 45° Northeast 154 177 800 -300 Descending Indianapolis Center